Time;durP1;ratioP1;P1;durP2;ratioP2;P2;SDS_P1;SDS_P2;PMS_P1;PMS_P2;Temp;Humidity;BMP_temperature;BMP_pressure;BME280_temperature;BME280_humidity;BME280_pressure;Samples;Min_cycle;Max_cycle;Signal;HPM_P1;HPM_P2
2023/12/01 00:01:27;;;;;;;36.92;22.27;;;;;;;6.47;92.47;99758.13;5014536;28;20038;-66
2023/12/01 00:03:53;;;;;;;31.33;19.45;;;;;;;6.52;91.88;99754.13;5005482;28;20048;-64
2023/12/01 00:06:18;;;;;;;31.52;18.00;;;;;;;6.56;92.02;99750.25;5014015;28;20064;-64
2023/12/01 00:08:44;;;;;;;28.40;16.80;;;;;;;6.62;92.03;99756.75;5014504;28;20034;-64
2023/12/01 00:11:09;;;;;;;28.65;15.48;;;;;;;6.45;92.76;99755.63;5013887;28;20046;-66
2023/12/01 00:13:34;;;;;;;23.85;14.40;;;;;;;6.39;93.78;99751.75;5013974;28;20045;-64
2023/12/01 00:16:00;;;;;;;25.70;15.38;;;;;;;6.51;93.51;99756.88;5013959;28;20034;-66
2023/12/01 00:18:26;;;;;;;26.25;14.52;;;;;;;6.63;91.99;99758.44;5013961;28;20068;-66
2023/12/01 00:20:51;;;;;;;33.65;18.45;;;;;;;6.65;91.08;99767.00;5013286;28;20298;-64
2023/12/01 00:23:19;;;;;;;23.77;15.05;;;;;;;6.62;91.14;99762.84;5013984;28;20046;-66
2023/12/01 00:25:45;;;;;;;26.55;14.73;;;;;;;6.52;91.88;99758.56;5014340;28;20038;-66
2023/12/01 00:28:10;;;;;;;21.88;14.63;;;;;;;6.61;92.21;99753.31;5006353;28;20042;-63
2023/12/01 00:30:35;;;;;;;25.15;14.45;;;;;;;6.70;91.43;99752.47;5009695;28;20243;-64
2023/12/01 00:33:01;;;;;;;23.45;13.98;;;;;;;6.69;91.12;99763.13;5014122;28;20046;-64
2023/12/01 00:35:26;;;;;;;24.40;14.48;;;;;;;6.53;91.10;99768.09;5008069;28;20364;-66
2023/12/01 00:37:52;;;;;;;22.58;14.02;;;;;;;6.53;92.07;99771.56;5016078;28;20042;-64
2023/12/01 00:40:17;;;;;;;22.75;13.85;;;;;;;6.49;91.87;99764.09;5018019;28;20037;-66
2023/12/01 00:42:43;;;;;;;21.52;13.35;;;;;;;6.41;92.39;99764.75;5017923;28;20323;-66
2023/12/01 00:45:08;;;;;;;29.27;15.02;;;;;;;6.39;92.48;99767.53;5017787;28;20034;-66
2023/12/01 00:47:34;;;;;;;25.55;14.52;;;;;;;6.40;92.76;99769.19;5017343;28;20318;-64
2023/12/01 00:49:59;;;;;;;24.67;14.10;;;;;;;6.37;92.91;99769.44;5018113;28;20068;-65
2023/12/01 00:52:25;;;;;;;24.65;14.45;;;;;;;6.39;92.80;99759.63;5005159;28;20092;-65
2023/12/01 00:54:51;;;;;;;21.73;14.13;;;;;;;6.23;93.00;99759.28;5026903;28;20037;-64
2023/12/01 00:57:16;;;;;;;24.88;14.32;;;;;;;6.32;93.38;99755.03;5026113;28;20227;-66
2023/12/01 00:59:41;;;;;;;27.92;16.45;;;;;;;6.13;93.46;99774.19;5038392;28;20041;-66
2023/12/01 01:02:08;;;;;;;36.58;18.60;;;;;;;6.23;92.83;99774.22;5037476;28;20025;-64
2023/12/01 01:04:34;;;;;;;31.23;17.08;;;;;;;6.24;92.42;99754.84;5037448;28;20064;-66
2023/12/01 01:06:59;;;;;;;25.80;16.92;;;;;;;6.35;92.15;99758.25;5035240;28;20033;-64
2023/12/01 01:09:25;;;;;;;26.55;16.20;;;;;;;6.39;91.51;99762.25;5035961;28;20033;-66
2023/12/01 01:11:50;;;;;;;22.65;15.98;;;;;;;6.48;90.39;99749.25;5028904;28;20033;-64
2023/12/01 01:14:16;;;;;;;25.85;16.25;;;;;;;6.56;90.24;99747.63;5036900;28;20056;-63
2023/12/01 01:16:41;;;;;;;26.70;17.27;;;;;;;6.61;89.24;99758.56;5036366;28;20065;-66
2023/12/01 01:19:07;;;;;;;24.60;15.55;;;;;;;6.60;88.40;99751.63;5036540;28;20060;-64
2023/12/01 01:21:32;;;;;;;25.30;16.40;;;;;;;6.55;87.41;99753.00;5036428;28;20239;-64
2023/12/01 01:23:58;;;;;;;25.10;16.58;;;;;;;6.55;88.23;99739.88;5036170;28;20041;-63
2023/12/01 01:26:23;;;;;;;25.45;16.15;;;;;;;6.36;88.85;99733.59;5036861;28;20041;-64
2023/12/01 01:28:49;;;;;;;26.33;16.50;;;;;;;6.13;91.00;99742.66;5036631;28;20037;-66
2023/12/01 01:31:14;;;;;;;30.33;17.92;;;;;;;6.08;92.15;99736.97;5036463;28;20362;-64
2023/12/01 01:33:39;;;;;;;46.92;27.92;;;;;;;6.19;91.26;99736.84;5036209;28;20243;-66
2023/12/01 01:36:06;;;;;;;40.05;24.10;;;;;;;6.35;91.16;99728.47;5034309;28;20038;-66
2023/12/01 01:38:32;;;;;;;28.50;18.77;;;;;;;6.38;90.02;99731.66;5027454;28;20104;-65
2023/12/01 01:40:57;;;;;;;26.67;16.05;;;;;;;6.31;89.59;99729.72;5034013;28;20362;-64
2023/12/01 01:43:23;;;;;;;23.77;14.70;;;;;;;6.36;90.05;99738.88;5028341;28;20071;-64
2023/12/01 01:46:05;;;;;;;33.85;17.00;;;;;;;6.35;90.07;99726.69;5035728;28;20323;-64
2023/12/01 01:48:32;;;;;;;27.38;15.75;;;;;;;6.40;89.69;99728.91;5036107;28;20045;-66
2023/12/01 01:50:58;;;;;;;25.02;14.43;;;;;;;6.36;89.93;99730.97;5036432;28;20302;-66
2023/12/01 01:53:25;;;;;;;24.35;13.20;;;;;;;6.26;90.24;99729.28;5035942;28;20068;-64
2023/12/01 01:55:51;;;;;;;24.08;15.07;;;;;;;6.34;90.59;99725.00;5035868;28;20117;-64
2023/12/01 01:58:16;;;;;;;22.65;13.75;;;;;;;6.44;89.67;99721.56;5035887;28;20042;-66
2023/12/01 02:00:44;;;;;;;20.17;13.43;;;;;;;6.45;88.49;99715.34;5034431;28;20234;-66
2023/12/01 02:03:10;;;;;;;20.08;13.90;;;;;;;6.32;87.40;99702.44;5035929;28;20029;-64
2023/12/01 02:05:35;;;;;;;24.13;14.68;;;;;;;6.19;87.62;99700.03;5036830;28;20071;-65
2023/12/01 02:08:23;;;;;;;23.75;14.57;;;;;;;6.27;88.02;99691.50;5036601;28;20033;-66
2023/12/01 02:10:49;;;;;;;23.67;14.75;;;;;;;6.27;87.14;99692.34;5036458;28;20033;-65
2023/12/01 02:13:15;;;;;;;24.05;14.07;;;;;;;6.21;88.20;99689.38;5035697;28;20049;-64
2023/12/01 02:15:44;;;;;;;22.67;14.60;;;;;;;6.25;88.89;99694.28;5035087;28;20278;-64
2023/12/01 02:18:27;;;;;;;22.27;13.27;;;;;;;6.26;88.61;99708.25;5026834;28;20026;-64
2023/12/01 02:20:54;;;;;;;17.55;13.18;;;;;;;6.22;88.68;99710.28;5032231;28;20026;-65
2023/12/01 02:23:20;;;;;;;26.88;15.90;;;;;;;6.19;89.69;99705.31;5035614;28;20048;-64
2023/12/01 02:25:46;;;;;;;25.27;16.25;;;;;;;5.99;90.51;99691.28;5024531;28;20497;-66
2023/12/01 02:28:12;;;;;;;26.33;16.27;;;;;;;6.09;89.86;99694.75;5024190;28;20324;-65
2023/12/01 02:30:38;;;;;;;24.38;15.18;;;;;;;6.00;88.11;99700.81;5018754;28;20475;-66
2023/12/01 02:33:04;;;;;;;28.60;16.17;;;;;;;6.12;88.01;99698.09;5035448;28;20040;-64
2023/12/01 02:35:29;;;;;;;23.88;14.73;;;;;;;6.17;88.08;99694.09;5031122;28;20243;-65
2023/12/01 02:37:58;;;;;;;25.08;14.77;;;;;;;6.19;88.37;99701.84;5028931;28;20029;-66
2023/12/01 02:40:25;;;;;;;21.23;14.70;;;;;;;6.21;87.95;99702.53;5028636;28;20037;-66
2023/12/01 02:42:52;;;;;;;22.35;13.82;;;;;;;6.15;87.15;99696.03;5030463;28;20044;-66
2023/12/01 02:45:18;;;;;;;32.20;16.83;;;;;;;6.04;88.35;99696.13;5035339;28;20365;-67
2023/12/01 02:47:47;;;;;;;62.28;32.22;;;;;;;5.98;89.84;99689.63;5034429;28;20032;-64
2023/12/01 02:50:13;;;;;;;54.88;27.73;;;;;;;6.06;90.26;99688.94;5035361;28;20259;-64
2023/12/01 02:52:39;;;;;;;27.08;17.08;;;;;;;6.07;89.87;99685.34;5035295;28;20044;-66
2023/12/01 02:55:04;;;;;;;21.58;14.10;;;;;;;6.00;88.13;99686.84;5035081;28;20054;-63
2023/12/01 02:57:30;;;;;;;21.83;14.98;;;;;;;6.07;87.68;99680.91;5034268;28;20038;-66
2023/12/01 02:59:55;;;;;;;21.13;14.48;;;;;;;6.03;88.62;99684.78;5036687;28;20052;-64
2023/12/01 03:02:22;;;;;;;21.40;13.95;;;;;;;6.02;88.08;99672.59;5034764;28;20037;-64
2023/12/01 03:04:47;;;;;;;24.58;16.02;;;;;;;5.97;89.55;99671.34;5035348;28;20033;-66
2023/12/01 03:07:13;;;;;;;26.10;14.93;;;;;;;5.89;90.03;99684.31;5035195;28;20507;-66
2023/12/01 03:09:38;;;;;;;26.00;17.90;;;;;;;5.73;91.96;99688.25;5035207;28;20343;-64
2023/12/01 03:12:04;;;;;;;24.58;15.65;;;;;;;5.83;91.80;99684.84;5033715;28;20334;-64
2023/12/01 03:14:30;;;;;;;27.05;16.25;;;;;;;5.93;91.03;99667.34;5023928;28;20323;-65
2023/12/01 03:16:56;;;;;;;22.95;13.95;;;;;;;5.87;91.82;99670.47;5034497;28;20037;-66
2023/12/01 03:19:22;;;;;;;26.10;14.93;;;;;;;5.95;92.33;99681.16;5033331;28;20033;-64
2023/12/01 03:21:48;;;;;;;26.20;14.85;;;;;;;5.96;91.71;99685.47;5034356;28;20041;-66
2023/12/01 03:24:13;;;;;;;30.58;16.30;;;;;;;5.95;92.02;99684.63;5034382;28;20061;-66
2023/12/01 03:26:39;;;;;;;35.17;19.20;;;;;;;5.94;91.85;99680.34;5034168;28;20033;-66
2023/12/01 03:29:04;;;;;;;27.88;15.88;;;;;;;5.94;92.11;99690.84;5034052;28;20037;-64
2023/12/01 03:31:30;;;;;;;26.80;16.00;;;;;;;6.00;92.24;99689.47;5034337;28;20029;-66
2023/12/01 03:33:55;;;;;;;24.15;14.05;;;;;;;5.97;92.08;99681.88;5034190;28;20236;-64
2023/12/01 03:36:21;;;;;;;23.83;13.95;;;;;;;6.02;91.54;99674.41;5034695;28;20041;-66
2023/12/01 03:38:47;;;;;;;26.48;14.93;;;;;;;6.06;91.59;99699.47;5033738;28;20036;-66
2023/12/01 03:41:13;;;;;;;28.20;16.45;;;;;;;6.13;91.55;99670.84;5034075;28;20054;-64
2023/12/01 03:43:38;;;;;;;23.77;14.27;;;;;;;6.17;91.07;99672.22;5033613;28;20057;-64
2023/12/01 03:46:04;;;;;;;24.05;13.80;;;;;;;6.11;91.07;99670.97;5034000;28;20220;-63
2023/12/01 03:48:31;;;;;;;26.15;14.32;;;;;;;6.16;90.95;99660.03;5034347;28;20042;-66
2023/12/01 03:50:57;;;;;;;20.73;13.25;;;;;;;6.21;91.55;99666.56;5033885;28;20033;-64
2023/12/01 03:53:22;;;;;;;24.48;15.27;;;;;;;6.18;90.34;99682.59;5033641;28;20084;-64
2023/12/01 03:55:47;;;;;;;25.63;14.07;;;;;;;6.03;91.05;99679.53;5033923;28;20216;-66
2023/12/01 03:58:14;;;;;;;19.50;12.38;;;;;;;5.95;91.73;99671.50;5023157;28;20123;-66
2023/12/01 04:00:39;;;;;;;20.27;12.43;;;;;;;5.87;92.48;99662.56;5034311;28;20196;-64
2023/12/01 04:03:05;;;;;;;18.83;11.75;;;;;;;5.88;92.42;99651.09;5025219;28;20037;-64
2023/12/01 04:05:30;;;;;;;22.58;13.50;;;;;;;5.91;93.26;99653.50;5034655;28;20039;-64
2023/12/01 04:07:56;;;;;;;26.80;15.68;;;;;;;5.93;92.84;99651.56;5033698;28;20045;-66
2023/12/01 04:10:21;;;;;;;23.80;13.57;;;;;;;5.92;92.99;99640.22;5034535;28;20040;-66
2023/12/01 04:12:47;;;;;;;23.42;13.73;;;;;;;5.95;92.95;99657.50;5034228;28;20049;-64
2023/12/01 04:15:15;;;;;;;20.45;13.60;;;;;;;5.86;93.92;99664.38;5034328;28;21020;-64
2023/12/01 04:17:44;;;;;;;25.10;14.20;;;;;;;5.74;94.48;99660.19;5024853;28;20033;-66
2023/12/01 04:20:29;;;;;;;24.25;13.68;;;;;;;5.81;94.83;99655.22;5034784;28;20045;-64
2023/12/01 04:22:57;;;;;;;23.30;12.98;;;;;;;5.72;94.80;99657.69;5033341;28;20037;-66
2023/12/01 04:25:22;;;;;;;23.80;13.88;;;;;;;5.69;95.44;99670.25;5035129;28;20057;-65
2023/12/01 04:27:49;;;;;;;21.17;13.13;;;;;;;5.70;95.80;99675.38;5034026;28;20050;-64
2023/12/01 04:30:15;;;;;;;26.15;15.52;;;;;;;5.91;95.18;99677.16;5033698;28;20189;-63
2023/12/01 04:32:42;;;;;;;19.38;12.95;;;;;;;5.89;94.98;99666.75;5035349;28;20104;-64
2023/12/01 04:35:08;;;;;;;22.15;15.00;;;;;;;6.03;93.07;99676.06;5022011;28;20027;-63
2023/12/01 04:37:33;;;;;;;21.63;14.93;;;;;;;6.05;93.00;99677.59;5021677;28;20044;-66
2023/12/01 04:39:58;;;;;;;20.55;11.73;;;;;;;6.15;92.77;99677.63;5035086;28;20041;-66
2023/12/01 04:42:24;;;;;;;21.45;12.98;;;;;;;6.03;92.53;99682.16;5035789;28;20045;-64
2023/12/01 04:44:49;;;;;;;19.55;12.82;;;;;;;6.08;92.24;99669.44;5023575;28;20046;-66
2023/12/01 04:47:14;;;;;;;20.27;12.77;;;;;;;6.24;91.82;99661.06;5022097;28;20042;-64
2023/12/01 04:49:40;;;;;;;19.20;13.40;;;;;;;6.13;92.08;99668.22;5016324;28;20033;-66
2023/12/01 04:52:05;;;;;;;20.23;13.23;;;;;;;6.18;92.36;99663.38;5022216;28;20116;-67
2023/12/01 04:54:31;;;;;;;22.17;14.23;;;;;;;6.01;92.60;99647.28;5016874;28;20052;-63
2023/12/01 04:56:56;;;;;;;19.73;13.77;;;;;;;6.15;92.56;99647.88;5021882;28;20052;-66
2023/12/01 04:59:22;;;;;;;19.45;13.65;;;;;;;6.13;91.72;99662.94;5017677;28;20040;-64
2023/12/01 05:01:47;;;;;;;18.83;12.48;;;;;;;6.08;92.42;99664.19;5022110;28;20040;-64
2023/12/01 05:04:12;;;;;;;15.70;10.57;;;;;;;5.98;92.50;99655.44;5015450;28;20038;-63
2023/12/01 05:06:38;;;;;;;16.67;10.80;;;;;;;5.92;93.32;99657.78;5022773;28;20041;-66
2023/12/01 05:09:16;;;;;;;19.92;11.80;;;;;;;5.65;94.74;99666.25;5016153;28;20042;-64
2023/12/01 05:11:45;;;;;;;17.33;11.05;;;;;;;5.74;94.08;99654.94;5024071;28;20037;-66
2023/12/01 05:14:10;;;;;;;16.92;11.05;;;;;;;5.64;94.65;99648.81;5026715;28;20434;-65
2023/12/01 05:16:36;;;;;;;19.63;12.10;;;;;;;5.64;94.87;99646.19;5036502;28;20029;-66
2023/12/01 05:19:02;;;;;;;18.50;12.50;;;;;;;5.70;94.68;99649.13;5036414;28;20037;-65
2023/12/01 05:21:27;;;;;;;23.85;15.02;;;;;;;5.87;94.49;99649.44;5040468;28;20040;-66
2023/12/01 05:23:53;;;;;;;19.60;14.50;;;;;;;6.02;93.99;99656.00;5040271;28;20052;-65
2023/12/01 05:26:18;;;;;;;22.33;13.68;;;;;;;6.01;92.99;99660.44;5039346;28;20037;-66
2023/12/01 05:28:44;;;;;;;24.75;16.17;;;;;;;5.88;94.51;99667.69;5040120;28;20048;-64
2023/12/01 05:31:10;;;;;;;32.72;16.77;;;;;;;5.88;94.31;99667.69;5039630;28;20034;-66
2023/12/01 05:33:38;;;;;;;30.50;18.13;;;;;;;5.93;94.10;99672.59;5039616;28;20338;-66
2023/12/01 05:36:08;;;;;;;26.65;17.95;;;;;;;5.87;93.53;99665.22;5040145;28;20037;-64
2023/12/01 05:38:34;;;;;;;31.42;17.70;;;;;;;5.83;93.94;99655.94;5040091;28;20342;-65
2023/12/01 05:41:00;;;;;;;26.92;18.02;;;;;;;5.94;93.77;99654.06;5039948;28;20022;-66
2023/12/01 05:43:25;;;;;;;20.98;13.65;;;;;;;6.01;93.49;99656.97;5032357;28;20040;-63
2023/12/01 05:45:51;;;;;;;20.90;12.93;;;;;;;5.98;93.23;99652.81;5021145;28;20030;-64
2023/12/01 05:48:16;;;;;;;21.30;12.13;;;;;;;5.91;93.11;99648.25;5020127;28;20045;-66
2023/12/01 05:50:42;;;;;;;17.40;12.20;;;;;;;5.89;93.69;99647.50;5020892;28;20029;-66
2023/12/01 05:53:10;;;;;;;18.50;11.18;;;;;;;5.92;94.11;99642.84;5019587;28;20435;-63
2023/12/01 05:55:36;;;;;;;22.65;13.90;;;;;;;5.93;93.40;99647.13;5019453;28;20038;-64
2023/12/01 05:58:10;;;;;;;24.90;14.93;;;;;;;5.71;93.85;99619.25;5020888;28;20100;-63
2023/12/01 06:00:36;;;;;;;29.73;16.38;;;;;;;5.95;94.50;99641.75;5019373;28;20034;-64
2023/12/01 06:03:06;;;;;;;28.80;16.48;;;;;;;5.92;93.44;99637.59;5020181;28;20045;-66
2023/12/01 06:05:32;;;;;;;26.48;17.02;;;;;;;5.96;93.80;99622.38;5020303;28;20128;-66
2023/12/01 06:07:59;;;;;;;28.58;19.13;;;;;;;5.95;93.21;99605.78;5020471;28;20192;-66
2023/12/01 06:10:26;;;;;;;29.85;18.48;;;;;;;6.11;92.31;99633.34;5019150;28;20046;-66
2023/12/01 06:12:52;;;;;;;28.67;19.48;;;;;;;6.09;93.66;99636.94;5019717;28;20357;-63
2023/12/01 06:15:19;;;;;;;30.13;19.40;;;;;;;6.15;93.08;99626.84;5019678;28;20025;-63
2023/12/01 06:17:46;;;;;;;29.20;18.80;;;;;;;6.25;93.24;99628.53;5020203;28;20332;-64
2023/12/01 06:20:20;;;;;;;33.10;17.30;;;;;;;6.31;92.99;99604.31;5019402;28;20037;-66
2023/12/01 06:22:59;;;;;;;27.15;17.35;;;;;;;6.34;92.42;99627.72;5020167;28;20053;-64
2023/12/01 06:25:30;;;;;;;31.58;18.85;;;;;;;6.36;92.17;99625.78;5024296;28;20264;-64
2023/12/01 06:27:58;;;;;;;32.70;19.00;;;;;;;6.40;92.02;99637.69;5023949;28;20108;-66
2023/12/01 06:30:28;;;;;;;33.55;19.08;;;;;;;6.49;92.03;99643.91;5024246;28;20095;-64
2023/12/01 06:32:54;;;;;;;29.38;17.77;;;;;;;6.54;91.31;99638.22;5033585;28;20338;-64
2023/12/01 06:35:21;;;;;;;30.92;19.17;;;;;;;6.62;91.50;99639.19;5035103;28;20026;-64
2023/12/01 06:37:48;;;;;;;40.10;22.55;;;;;;;6.70;91.17;99641.97;5033542;28;20099;-66
2023/12/01 06:40:17;;;;;;;34.20;21.48;;;;;;;6.74;90.17;99639.88;5033492;28;20100;-64
2023/12/01 06:42:48;;;;;;;36.95;20.20;;;;;;;6.76;90.49;99643.22;5035162;28;20274;-64
2023/12/01 06:45:15;;;;;;;33.05;18.90;;;;;;;6.69;90.94;99637.66;5034013;28;20056;-66
2023/12/01 06:47:42;;;;;;;29.20;17.73;;;;;;;6.71;90.86;99648.88;5033689;28;20038;-66
2023/12/01 06:50:11;;;;;;;25.55;19.60;;;;;;;6.43;91.27;99617.34;5031579;28;20056;-64
2023/12/01 06:52:38;;;;;;;27.55;19.10;;;;;;;6.68;90.93;99645.72;5033361;28;20349;-66
2023/12/01 06:55:05;;;;;;;23.30;16.70;;;;;;;6.62;91.48;99644.47;5033272;28;20335;-66
2023/12/01 06:57:30;;;;;;;28.33;16.88;;;;;;;6.60;92.19;99648.19;5033408;28;20208;-64
2023/12/01 06:59:55;;;;;;;26.50;16.73;;;;;;;6.65;92.38;99651.25;5033527;28;20029;-66
2023/12/01 07:02:23;;;;;;;26.73;17.70;;;;;;;6.72;92.34;99647.91;5033247;28;20048;-64
2023/12/01 07:04:48;;;;;;;30.20;17.88;;;;;;;6.89;91.60;99661.34;5023396;28;20037;-64
2023/12/01 07:07:14;;;;;;;26.70;16.77;;;;;;;6.91;91.89;99648.88;5033312;28;20044;-64
2023/12/01 07:09:43;;;;;;;24.27;13.98;;;;;;;6.94;91.66;99640.69;5032631;28;20033;-66
2023/12/01 07:12:08;;;;;;;23.50;14.85;;;;;;;6.86;91.94;99653.72;5033244;28;20232;-66
2023/12/01 07:14:36;;;;;;;39.63;27.85;;;;;;;6.80;92.43;99667.44;5033132;28;20040;-64
2023/12/01 07:17:02;;;;;;;29.63;16.63;;;;;;;6.86;92.16;99678.25;5033576;28;20738;-66
2023/12/01 07:19:28;;;;;;;36.10;24.35;;;;;;;6.77;92.58;99671.19;5034213;28;20357;-64
2023/12/01 07:21:54;;;;;;;23.55;14.98;;;;;;;6.60;93.49;99659.56;5033855;28;20109;-64
2023/12/01 07:24:20;;;;;;;21.73;13.20;;;;;;;6.64;94.53;99670.63;5034609;28;20037;-67
2023/12/01 07:26:51;;;;;;;22.38;13.57;;;;;;;6.77;95.37;99665.91;5034193;28;20429;-64
2023/12/01 07:29:18;;;;;;;24.90;15.43;;;;;;;6.90;95.52;99661.19;5034973;28;20100;-64
2023/12/01 07:31:44;;;;;;;23.13;15.20;;;;;;;7.02;94.80;99667.13;5034677;28;20366;-67
2023/12/01 07:34:11;;;;;;;29.02;17.98;;;;;;;6.81;95.88;99677.81;5035042;28;20034;-63
2023/12/01 07:36:37;;;;;;;26.02;17.35;;;;;;;6.95;95.22;99658.13;5033973;28;20025;-66
2023/12/01 07:39:03;;;;;;;31.35;19.00;;;;;;;6.86;96.68;99657.19;5033946;28;20083;-66
2023/12/01 07:41:28;;;;;;;28.20;18.20;;;;;;;7.01;96.97;99661.03;5034546;28;20033;-62
2023/12/01 07:43:55;;;;;;;33.03;18.85;;;;;;;7.24;96.85;99669.44;5034051;28;20041;-64
2023/12/01 07:46:20;;;;;;;29.60;18.95;;;;;;;7.33;95.96;99676.53;5033708;28;21021;-62
2023/12/01 07:48:46;;;;;;;31.33;18.33;;;;;;;7.41;96.52;99665.25;5033351;28;20040;-64
2023/12/01 07:51:12;;;;;;;27.58;17.27;;;;;;;7.54;96.08;99678.13;5033707;28;20099;-64
2023/12/01 07:53:37;;;;;;;26.92;15.70;;;;;;;7.54;95.51;99675.47;5033838;28;20053;-64
2023/12/01 07:56:03;;;;;;;22.33;14.55;;;;;;;7.55;95.73;99674.50;5033509;28;20033;-64
2023/12/01 07:58:28;;;;;;;19.33;11.57;;;;;;;7.58;95.94;99676.84;5033882;28;20056;-64
2023/12/01 08:00:55;;;;;;;19.20;12.18;;;;;;;7.59;96.30;99668.81;5025666;28;20029;-62
2023/12/01 08:03:21;;;;;;;19.60;13.40;;;;;;;7.56;96.01;99668.25;5021295;28;20038;-61
2023/12/01 08:05:46;;;;;;;20.42;14.23;;;;;;;7.61;95.52;99672.13;5031964;28;20029;-64
2023/12/01 08:08:14;;;;;;;21.35;13.68;;;;;;;7.68;95.62;99675.00;5033656;28;20215;-64
2023/12/01 08:10:39;;;;;;;22.00;14.00;;;;;;;7.63;96.22;99661.44;5033426;28;20033;-61
2023/12/01 08:13:05;;;;;;;23.40;13.45;;;;;;;7.68;96.72;99672.38;5032712;28;20278;-61
2023/12/01 08:15:31;;;;;;;21.45;14.27;;;;;;;7.53;98.39;99694.91;5032564;28;20120;-66
2023/12/01 08:17:58;;;;;;;20.52;13.18;;;;;;;7.62;98.29;99699.31;5033210;28;20037;-67
2023/12/01 08:20:24;;;;;;;20.70;13.95;;;;;;;7.50;98.97;99705.72;5033728;28;20036;-66
2023/12/01 08:22:49;;;;;;;25.75;15.48;;;;;;;7.64;99.69;99710.53;5032922;28;20037;-63
2023/12/01 08:25:16;;;;;;;23.05;17.27;;;;;;;7.49;99.51;99694.34;5033227;28;20041;-66
2023/12/01 08:27:42;;;;;;;25.48;15.65;;;;;;;7.69;98.74;99687.22;5033138;28;20048;-66
2023/12/01 08:30:08;;;;;;;20.33;13.98;;;;;;;7.79;98.55;99660.81;5033619;28;20034;-65
2023/12/01 08:32:33;;;;;;;26.42;15.18;;;;;;;8.01;97.94;99673.59;5030597;28;20049;-66
2023/12/01 08:34:59;;;;;;;25.67;14.57;;;;;;;8.16;97.17;99674.75;5033621;28;20528;-65
2023/12/01 08:37:24;;;;;;;25.88;15.80;;;;;;;8.18;97.19;99664.88;5033752;28;20041;-67
2023/12/01 08:39:50;;;;;;;21.90;15.02;;;;;;;8.23;96.52;99675.81;5035990;28;20348;-64
2023/12/01 08:42:19;;;;;;;27.55;16.65;;;;;;;8.12;97.03;99683.94;5033462;28;20033;-66
2023/12/01 08:44:44;;;;;;;27.45;16.17;;;;;;;8.28;97.09;99685.94;5033211;28;20188;-66
2023/12/01 08:47:13;;;;;;;32.60;19.20;;;;;;;8.35;97.05;99684.41;5033374;28;20092;-66
2023/12/01 08:49:40;;;;;;;27.83;16.83;;;;;;;8.41;97.63;99673.25;5033176;28;20053;-67
2023/12/01 08:52:07;;;;;;;29.38;19.98;;;;;;;8.48;98.08;99661.13;5032317;28;20056;-64
2023/12/01 08:54:33;;;;;;;34.20;18.75;;;;;;;8.64;97.91;99657.81;5033378;28;20049;-64
2023/12/01 08:56:58;;;;;;;29.25;17.10;;;;;;;8.59;98.88;99655.63;5036345;28;20029;-66
2023/12/01 08:59:24;;;;;;;26.13;16.98;;;;;;;8.75;97.06;99641.72;5036586;28;20235;-64
2023/12/01 09:01:50;;;;;;;29.75;17.83;;;;;;;8.77;96.62;99645.06;5033226;28;20030;-66
2023/12/01 09:04:15;;;;;;;25.83;17.85;;;;;;;8.83;97.33;99648.88;5036424;28;20038;-66
2023/12/01 09:06:41;;;;;;;27.00;17.63;;;;;;;8.98;97.12;99644.72;5036533;28;20044;-64
2023/12/01 09:09:06;;;;;;;30.98;19.90;;;;;;;9.13;95.69;99650.25;5036562;28;20171;-64
2023/12/01 09:11:32;;;;;;;29.38;17.45;;;;;;;9.22;95.37;99636.94;5036318;28;20045;-63
2023/12/01 09:13:58;;;;;;;28.08;17.38;;;;;;;9.29;95.50;99608.09;5036787;28;20053;-64
2023/12/01 09:16:24;;;;;;;24.48;15.27;;;;;;;9.39;94.88;99608.84;5036581;28;20042;-64
2023/12/01 09:18:50;;;;;;;21.40;13.63;;;;;;;9.47;94.49;99603.59;5036710;28;20053;-64
2023/12/01 09:21:16;;;;;;;19.95;13.05;;;;;;;9.56;93.90;99589.41;5031089;28;20357;-66
2023/12/01 09:23:41;;;;;;;22.05;15.07;;;;;;;9.59;93.94;99582.97;5024327;28;20057;-67
2023/12/01 09:26:07;;;;;;;24.80;14.45;;;;;;;9.71;93.62;99589.63;5024631;28;20432;-64
2023/12/01 09:28:35;;;;;;;30.98;18.13;;;;;;;9.88;92.65;99588.69;5034509;28;20036;-64
2023/12/01 09:31:04;;;;;;;21.88;15.13;;;;;;;9.77;94.92;99590.81;5036502;28;20353;-67
2023/12/01 09:33:32;;;;;;;21.52;15.77;;;;;;;9.79;94.82;99602.88;5033055;28;20037;-66
2023/12/01 09:35:58;;;;;;;25.17;15.95;;;;;;;9.87;95.11;99605.56;5036729;28;20358;-66
2023/12/01 09:38:24;;;;;;;21.38;15.20;;;;;;;10.05;93.76;99613.38;5035333;28;20041;-64
2023/12/01 09:40:50;;;;;;;25.58;16.75;;;;;;;10.14;92.93;99620.34;5025394;28;20124;-63
2023/12/01 09:43:18;;;;;;;30.33;14.80;;;;;;;10.28;92.42;99615.44;5037136;28;20147;-64
2023/12/01 09:45:44;;;;;;;23.13;15.48;;;;;;;10.19;92.67;99611.91;5035422;28;20308;-62
2023/12/01 09:48:11;;;;;;;23.13;13.45;;;;;;;10.08;92.39;99597.16;5036742;28;20059;-64
2023/12/01 09:50:37;;;;;;;20.58;12.13;;;;;;;10.24;92.07;99583.16;5035903;28;20050;-62
2023/12/01 09:53:03;;;;;;;26.10;15.95;;;;;;;10.00;93.98;99576.00;5034530;28;20045;-61
2023/12/01 09:55:29;;;;;;;26.42;15.95;;;;;;;9.88;96.26;99590.50;5035853;28;20278;-62
2023/12/01 09:57:56;;;;;;;23.67;15.15;;;;;;;10.01;95.53;99598.81;5035312;28;20341;-62
2023/12/01 10:00:22;;;;;;;20.67;13.10;;;;;;;10.11;94.20;99580.16;5035937;28;20071;-62
2023/12/01 10:02:48;;;;;;;22.15;13.65;;;;;;;9.99;94.79;99574.34;5035733;28;20045;-64
2023/12/01 10:05:13;;;;;;;20.30;11.98;;;;;;;9.96;95.87;99574.66;5032155;28;20084;-64
2023/12/01 10:07:40;;;;;;;18.70;12.63;;;;;;;10.09;94.85;99569.72;5026378;28;20254;-62
2023/12/01 10:10:19;;;;;;;19.48;13.13;;;;;;;9.88;95.67;99558.78;5035630;28;20048;-64
2023/12/01 10:13:04;;;;;;;37.70;18.85;;;;;;;10.01;95.06;99561.78;5035503;28;20041;-64
2023/12/01 10:15:31;;;;;;;27.92;14.32;;;;;;;9.89;94.62;99540.09;5035757;28;20449;-64
2023/12/01 10:18:16;;;;;;;18.85;11.65;;;;;;;9.77;95.88;99549.34;5035354;28;20049;-64
2023/12/01 10:20:54;;;;;;;17.42;12.18;;;;;;;9.62;96.18;99535.06;5023570;28;20061;-67
2023/12/01 10:23:20;;;;;;;19.05;12.10;;;;;;;9.41;97.29;99532.03;5034894;28;20034;-66
2023/12/01 10:25:50;;;;;;;23.35;12.38;;;;;;;9.70;95.50;99548.31;5035937;28;20036;-65
2023/12/01 10:28:19;;;;;;;23.10;13.48;;;;;;;9.85;95.09;99540.59;5033337;28;20044;-66
2023/12/01 10:30:58;;;;;;;24.90;14.02;;;;;;;10.01;94.11;99535.31;5035636;28;20048;-66
2023/12/01 10:33:26;;;;;;;21.42;12.73;;;;;;;10.14;94.44;99543.59;5023262;28;20104;-61
2023/12/01 10:36:08;;;;;;;19.55;11.95;;;;;;;10.11;93.48;99519.28;5034934;28;20265;-61
2023/12/01 10:38:35;;;;;;;21.95;12.55;;;;;;;10.31;93.67;99520.66;5035497;28;20045;-62
2023/12/01 10:41:05;;;;;;;18.95;12.60;;;;;;;10.43;92.76;99524.66;5022378;28;20033;-64
2023/12/01 10:43:31;;;;;;;23.50;14.15;;;;;;;10.36;93.10;99505.09;5033853;28;20046;-62
2023/12/01 10:46:05;;;;;;;23.23;13.07;;;;;;;10.22;93.64;99516.34;5023953;28;20064;-64
2023/12/01 10:48:33;;;;;;;24.33;14.02;;;;;;;10.38;94.03;99545.47;5034675;28;20108;-64
2023/12/01 10:51:03;;;;;;;22.73;13.23;;;;;;;10.44;93.56;99555.41;5035182;28;20033;-62
2023/12/01 10:53:29;;;;;;;24.27;13.98;;;;;;;10.41;93.12;99552.28;5035153;28;20337;-64
2023/12/01 10:55:55;;;;;;;27.73;13.57;;;;;;;10.43;93.75;99551.13;5034423;28;20294;-64
2023/12/01 10:58:25;;;;;;;21.67;13.80;;;;;;;10.48;93.96;99540.03;5034945;28;20327;-64
2023/12/01 11:00:52;;;;;;;18.42;13.15;;;;;;;10.36;93.96;99534.22;5033329;28;20037;-61
2023/12/01 11:03:25;;;;;;;19.95;14.13;;;;;;;10.46;94.37;99539.38;5034632;28;20060;-62
2023/12/01 11:06:01;;;;;;;24.60;15.27;;;;;;;10.52;94.82;99547.47;5034898;28;20041;-64
2023/12/01 11:08:43;;;;;;;24.63;14.38;;;;;;;10.48;95.23;99548.81;5034216;28;20100;-64
2023/12/01 11:11:20;;;;;;;23.58;14.95;;;;;;;10.53;93.72;99535.06;5025500;28;20045;-64
2023/12/01 11:14:16;;;;;;;25.52;14.98;;;;;;;10.57;93.66;99544.31;5033076;28;20543;-62
2023/12/01 11:16:42;;;;;;;27.92;18.05;;;;;;;10.61;94.61;99553.59;5022645;28;20065;-62
2023/12/01 11:19:11;;;;;;;48.30;28.52;;;;;;;10.55;94.11;99535.72;5030681;28;20041;-62
2023/12/01 11:21:40;;;;;;;45.72;26.33;;;;;;;10.57;94.26;99531.09;5032860;28;20025;-65
2023/12/01 11:24:32;;;;;;;27.92;17.83;;;;;;;10.66;93.58;99545.16;5022183;28;20447;-62